Pagrindinis puslapis
METAR-TAF:

METAR-TAF

Oro uostai :

Elis Springsas, Australija

platuma: 23-48S, ilguma: 133-53E, Aukštis: 545 m

Dabartinis oras

Ataskaita buvo paskelbta 30 minutes, ne 05:00 UTC
Vėjas 15 kt iš Pietryčių su gūsio iki 25 kt, svyruoja nuo Rytų/Pietryčių ir Pietų
Temperatūra 39°C
Drėgmė 9%
Slėgis 1011 hPa
Matomumas 10 km arba daugiau

METAR: YBAS 120500Z AUTO 14015G25KT 110V170 9999 // NCD 39/00 Q1011

Laikas: 15:00 (05:30 UTC)

Prognozė

Ataskaita buvo paskelbta 6 valandos ir 27 minutes, ne 23:03 UTC
Prognozė galioja nuo 11 metu 23 UTC su 13 metu 00 UTC
Vėjas 15 kt iš Rytų/Pietryčių su gūsio iki 25 kt
Matomumas 10 km arba daugiau
nėra debesų žemiau 1500 m ir nėra kamuolinių lietaus debesų
Nuo 12 metu 0400 UTC
Vėjas 19 kt iš Pietų/Pietryčių su gūsio iki 29 kt
Matomumas: 9000 m
dulkės, migla
Nuo 12 metu 1400 UTC
Vėjas 12 kt iš Pietryčių
Matomumas 10 km arba daugiau
nėra debesų žemiau 1500 m ir nėra kamuolinių lietaus debesų

TAF: YBAS 112303Z 1123/1300 11015G25KT CAVOK FM120400 16019G29KT 9000 DU HZ NSC FM121400 14012KT CAVOK

Orai ataskaitas ir orų prognozės (METAR, TAF).

turimą stotys yra geltonos ir raudonos taškus žemėlapyje.

Perkelti pele per norėdami pamatyti stoties vardą.

Tada spustelėkite, norėdami matyti oro stebėjimo ir prognozės.

Norėdami pakeisti žemėlapį: spustelėkite ant žalios mygtukų su juodo kryžiaus žemyn,; žalią mygtuką su brūkšneliu, jei norite nutolinti; arba žalių rodyklių gretimoms žemėlapius.


METAR-TAF: